Terminal Aerodrome Forecast
Issued by NWS Twin Cities, MN

Home | Current Version | Previous Version | Graphics & Text | Print | Product List | Glossary On
Versions: 1 2 3 4 5 6 7 8 9 10 11 12 13 14 15 16 17 18 19 20 21 22 23 24 25 26 27 28 29 30 31 32 33
000
FTUS43 KMPX 282000 AAC
TAFMSP
TAF AMD
KMSP 282058Z 2821/2924 12010KT P6SM BKN013 OVC025
      TEMPO 2821/2824 6SM -SHRA BR OVC013
     FM290000 12009KT 6SM BR OVC009
     FM290600 12008KT 5SM -SHRA BR OVC007
     FM291300 12008KT 6SM BR BKN008 OVC010
     FM291800 22007KT P6SM BKN020 OVC060 PROB30 2919/2923 5SM -TSRA
      OVC020CB=

USA.gov is the U.S. government's official web portal to all federal, state and local government web resources and services.